createdAt,value
2024-02-28T00:04:50.749Z,65.20
2024-02-28T00:09:50.613Z,74.10
2024-02-28T00:14:50.510Z,65.30
2024-02-28T00:19:50.519Z,75.20
2024-02-28T00:24:50.609Z,83.90
2024-02-28T00:29:50.416Z,76.90
2024-02-28T00:34:50.337Z,88.80
2024-02-28T03:15:14.013Z,184.30
2024-02-28T03:20:13.915Z,177.70
2024-02-28T03:25:13.839Z,140.60
2024-02-28T03:30:13.820Z,183.60
2024-02-28T03:35:13.758Z,204.50
2024-02-28T03:40:13.751Z,217.60
2024-02-28T03:45:13.710Z,236.10
2024-02-28T03:50:13.598Z,249.90
2024-02-28T03:55:13.550Z,243.00
2024-02-28T04:00:13.558Z,250.30
2024-02-28T04:05:13.466Z,232.70
2024-02-28T04:10:13.415Z,215.90
2024-02-28T04:15:15.598Z,232.50
2024-02-28T04:20:13.361Z,218.10
2024-02-28T04:25:13.250Z,230.50
2024-02-28T04:30:13.259Z,221.40
2024-02-28T04:35:13.118Z,217.60
2024-02-28T04:40:13.098Z,196.90
2024-02-28T04:45:12.993Z,186.30
2024-02-28T04:50:13.207Z,182.50
2024-02-28T04:55:12.943Z,190.30
2024-02-28T05:00:12.868Z,186.90
2024-02-28T05:05:12.809Z,179.60
2024-02-28T05:10:12.837Z,179.90
2024-02-28T05:15:12.726Z,174.80
2024-02-28T05:20:12.627Z,166.00
2024-02-28T05:25:12.564Z,176.70
2024-02-28T05:30:12.553Z,169.20
2024-02-28T05:35:12.483Z,160.80
2024-02-28T05:40:12.442Z,160.80
2024-02-28T05:45:12.334Z,152.40
2024-02-28T05:50:12.311Z,149.70
2024-02-28T05:55:12.271Z,161.70
2024-02-28T06:00:12.194Z,169.70
2024-02-28T06:05:12.118Z,179.30
2024-02-28T06:10:12.064Z,180.10
2024-02-28T06:15:12.007Z,179.80
2024-02-28T06:20:11.945Z,182.60
2024-02-28T06:25:11.943Z,196.70
2024-02-28T06:30:11.879Z,199.30
2024-02-28T06:35:11.811Z,198.00
2024-02-28T06:40:11.755Z,230.40
2024-02-28T06:45:11.697Z,222.60
2024-02-28T06:50:11.889Z,215.90
2024-02-28T06:55:11.627Z,217.60
2024-02-28T07:00:11.520Z,228.40
2024-02-28T07:05:11.460Z,177.20
2024-02-28T07:10:11.390Z,186.40
2024-02-28T07:15:11.344Z,196.50
2024-02-28T07:20:11.325Z,179.40
2024-02-28T07:25:11.313Z,162.20
2024-02-28T07:30:11.182Z,177.10
2024-02-28T07:56:51.869Z,172.10
2024-02-28T08:01:52.018Z,174.60
2024-02-28T08:06:52.597Z,161.50
2024-02-28T08:11:52.025Z,154.90
2024-02-28T08:43:14.022Z,145.00
2024-02-28T08:48:13.940Z,138.20
2024-02-28T08:53:13.860Z,148.00
2024-02-28T08:58:13.845Z,157.00
2024-02-28T09:03:13.756Z,152.50
2024-02-28T09:08:14.724Z,138.80
2024-02-28T09:13:13.738Z,95.90
2024-02-28T09:18:13.752Z,95.40
2024-02-28T09:23:13.608Z,96.10
2024-02-28T09:28:13.673Z,109.50
2024-02-28T09:33:13.581Z,105.70
2024-02-28T09:38:13.466Z,101.90
2024-02-28T09:43:13.539Z,95.60
2024-02-28T09:48:13.313Z,87.90
2024-02-28T09:53:13.369Z,72.90
2024-02-28T09:58:13.211Z,80.00
2024-02-28T10:03:13.269Z,87.00
2024-02-28T10:08:13.150Z,83.80
2024-02-28T10:13:13.173Z,82.00
2024-02-28T10:18:13.112Z,80.00
2024-02-28T10:23:12.985Z,88.20
2024-02-28T10:28:12.928Z,80.60
2024-02-28T10:33:13.248Z,74.70
2024-02-28T10:38:12.732Z,72.10
2024-02-28T10:43:12.812Z,72.30
2024-02-28T10:48:12.677Z,69.00
2024-02-28T10:53:12.565Z,72.60
2024-02-28T10:58:12.575Z,67.70
2024-02-28T11:03:12.451Z,68.90
2024-02-28T11:08:12.410Z,65.80
2024-02-28T11:13:12.359Z,65.10
2024-02-28T11:18:12.378Z,65.60
2024-02-28T11:23:12.265Z,65.10
2024-02-28T11:28:12.273Z,58.20
2024-02-28T11:33:12.164Z,57.30
2024-02-28T11:38:12.055Z,61.00
2024-02-28T11:43:12.020Z,63.90
2024-02-28T11:48:12.030Z,60.20
2024-02-28T11:53:11.917Z,61.30
2024-02-28T11:58:11.911Z,59.50
2024-02-28T12:03:11.805Z,66.00
2024-02-28T12:08:11.753Z,64.40
2024-02-28T12:13:11.723Z,58.30
2024-02-28T12:18:11.721Z,58.20
2024-02-28T12:23:11.625Z,54.60
2024-02-28T12:28:11.548Z,58.10
2024-02-28T12:33:12.610Z,56.30
2024-02-28T12:38:11.769Z,53.20
2024-02-28T12:43:11.537Z,52.70
2024-02-28T12:48:11.374Z,46.00
2024-02-28T12:53:11.241Z,44.10
2024-02-28T12:58:11.236Z,42.90
2024-02-28T13:03:11.187Z,48.60
2024-02-28T13:08:11.096Z,41.10
2024-02-28T13:13:11.190Z,44.00
2024-02-28T13:18:11.193Z,43.10
2024-02-28T13:23:10.931Z,40.50
2024-02-28T13:28:10.997Z,35.70
2024-02-28T13:33:10.950Z,38.20
2024-02-28T13:38:10.771Z,44.50
2024-02-28T13:43:10.707Z,42.70
2024-02-28T13:48:10.732Z,38.80
2024-02-28T13:53:11.387Z,40.00
2024-02-28T13:58:10.568Z,39.70
2024-02-28T14:03:11.170Z,40.90
2024-02-28T14:08:11.121Z,44.10
2024-02-28T14:13:11.528Z,37.00
2024-02-28T14:18:10.472Z,39.40
2024-02-28T14:23:10.220Z,40.10
2024-02-28T14:28:10.283Z,37.20
2024-02-28T14:33:20.245Z,37.30
2024-02-28T14:38:10.065Z,40.60
2024-02-28T14:43:10.075Z,33.80
2024-02-28T14:48:10.018Z,38.60
2024-02-28T14:53:09.915Z,33.60
2024-02-28T14:58:10.018Z,36.90
2024-02-28T15:03:09.852Z,39.00
2024-02-28T15:08:09.844Z,33.10
2024-02-28T15:13:10.105Z,30.10
2024-02-28T15:18:09.778Z,32.30
2024-02-28T15:23:09.864Z,34.60
2024-02-28T15:28:09.660Z,30.20
2024-02-28T15:33:09.642Z,33.80
2024-02-28T15:38:09.560Z,34.20
2024-02-28T15:43:09.542Z,31.40
2024-02-28T15:48:09.476Z,32.60
2024-02-28T15:53:09.289Z,30.50
2024-02-28T15:58:09.309Z,31.80
2024-02-28T16:03:09.219Z,30.10
2024-02-28T16:08:09.173Z,33.50
2024-02-28T16:13:09.186Z,30.70
2024-02-28T16:18:20.491Z,32.30
2024-02-28T16:23:08.848Z,36.10
2024-02-28T16:28:08.921Z,29.40
2024-02-28T16:33:08.792Z,28.20
2024-02-28T16:38:08.777Z,28.70
2024-02-28T16:43:08.695Z,26.00
2024-02-28T16:48:08.635Z,23.20
2024-02-28T16:53:08.645Z,27.00
2024-02-28T16:58:08.589Z,24.40
2024-02-28T17:03:08.520Z,31.00
2024-02-28T17:08:08.462Z,22.30
2024-02-28T17:13:10.267Z,29.90
2024-02-28T17:18:08.335Z,23.80
2024-02-28T17:23:08.266Z,23.50
2024-02-28T17:28:08.163Z,28.20
2024-02-28T17:33:08.205Z,26.30
2024-02-28T17:38:08.111Z,29.50
2024-02-28T17:43:08.078Z,26.30
2024-02-28T17:48:08.302Z,27.80
2024-02-28T17:53:07.953Z,32.30
2024-02-28T17:58:07.973Z,30.00
2024-02-28T18:03:08.551Z,38.40
2024-02-28T18:08:07.938Z,35.10
2024-02-28T18:13:07.792Z,37.50
2024-02-28T18:18:07.800Z,36.70
2024-02-28T18:23:10.452Z,42.90
2024-02-28T18:28:07.766Z,39.20
2024-02-28T18:33:07.574Z,42.70
2024-02-28T18:38:08.585Z,41.10
2024-02-28T18:43:07.520Z,39.10
2024-02-28T18:48:07.327Z,39.40
2024-02-28T18:53:07.271Z,41.40
2024-02-28T18:58:07.214Z,38.20
2024-02-28T19:03:07.177Z,40.60
2024-02-28T19:08:07.086Z,41.20
2024-02-28T19:13:07.022Z,41.60
2024-02-28T19:18:07.053Z,39.30
2024-02-28T19:23:06.939Z,41.20
2024-02-28T19:28:07.002Z,42.90
2024-02-28T19:33:06.826Z,39.80
2024-02-28T19:38:06.879Z,38.00
2024-02-28T19:43:06.770Z,38.00
2024-02-28T19:48:06.677Z,41.90
2024-02-28T19:53:06.566Z,41.80
2024-02-28T19:58:06.587Z,39.30
2024-02-28T20:03:06.481Z,36.50
2024-02-28T20:08:06.380Z,42.30
2024-02-28T20:13:06.471Z,40.10
2024-02-28T20:18:06.385Z,38.00
2024-02-28T20:23:06.279Z,35.30
2024-02-28T20:28:06.231Z,35.10
2024-02-28T20:33:06.287Z,35.80
2024-02-28T20:38:06.072Z,34.10
2024-02-28T20:43:06.167Z,32.60
2024-02-28T20:48:05.973Z,39.00
2024-02-28T20:53:05.903Z,34.10
2024-02-28T20:58:05.919Z,30.20
2024-02-28T21:03:05.801Z,34.50
2024-02-28T21:08:05.815Z,37.40
2024-02-28T21:13:05.800Z,39.70
2024-02-28T21:18:05.705Z,35.20
2024-02-28T21:23:05.569Z,34.70
2024-02-28T21:28:05.575Z,29.80
2024-02-28T21:33:05.537Z,29.90
2024-02-28T21:38:05.415Z,28.80
2024-02-28T21:43:05.395Z,30.20
2024-02-28T21:48:05.379Z,27.60
2024-02-28T21:53:05.230Z,30.70
2024-02-28T21:58:05.378Z,24.10
2024-02-28T22:03:05.168Z,33.70
2024-02-28T22:08:05.103Z,30.90
2024-02-28T22:13:05.124Z,28.20
2024-02-28T22:18:05.040Z,27.50
2024-02-28T22:23:05.011Z,27.70
2024-02-28T22:28:04.999Z,28.50
2024-02-28T22:33:04.887Z,25.60
2024-02-28T22:38:04.755Z,26.30
2024-02-28T22:43:04.739Z,23.80
2024-02-28T22:48:04.641Z,25.60
2024-02-28T22:53:04.561Z,25.10
2024-02-28T22:58:04.624Z,22.60
2024-02-28T23:03:04.474Z,23.10
2024-02-28T23:08:04.462Z,20.40
2024-02-28T23:13:04.447Z,27.20
2024-02-28T23:18:04.423Z,19.40
2024-02-28T23:23:04.280Z,20.10
2024-02-28T23:28:04.536Z,20.20
2024-02-28T23:33:04.237Z,19.90
2024-02-28T23:38:04.123Z,20.60
2024-02-28T23:43:04.117Z,20.20
2024-02-28T23:48:04.061Z,17.90
2024-02-28T23:53:03.912Z,22.30
2024-02-28T23:58:03.963Z,20.90
